createdAt,value
2022-12-17T00:00:27.765Z,99.90
2022-12-17T00:03:18.635Z,99.90
2022-12-17T00:06:05.287Z,99.90
2022-12-17T00:08:52.061Z,99.90
2022-12-17T00:11:38.788Z,99.90
2022-12-17T00:14:25.627Z,99.90
2022-12-17T00:17:12.478Z,99.90
2022-12-17T00:20:00.460Z,99.90
2022-12-17T00:22:46.855Z,99.90
2022-12-17T00:25:33.551Z,99.90
2022-12-17T00:28:19.949Z,99.90
2022-12-17T00:31:10.697Z,99.90
2022-12-17T00:33:57.367Z,99.90
2022-12-17T00:36:45.346Z,99.90
2022-12-17T00:39:37.492Z,99.90
2022-12-17T00:42:24.393Z,99.90
2022-12-17T00:45:10.701Z,99.90
2022-12-17T00:47:57.138Z,99.90
2022-12-17T00:50:44.008Z,99.90
2022-12-17T00:53:31.896Z,99.90
2022-12-17T00:56:18.665Z,99.90
2022-12-17T00:59:13.749Z,99.90
2022-12-17T01:02:00.319Z,99.90
2022-12-17T01:04:46.885Z,99.90
2022-12-17T01:07:33.599Z,99.90
2022-12-17T01:10:23.662Z,99.90
2022-12-17T01:13:10.705Z,99.90
2022-12-17T01:15:57.179Z,99.90
2022-12-17T01:18:43.669Z,99.90
2022-12-17T01:21:30.184Z,99.90
2022-12-17T01:24:16.719Z,99.90
2022-12-17T01:27:05.121Z,99.90
2022-12-17T01:29:52.018Z,99.90
2022-12-17T01:32:38.347Z,99.90
2022-12-17T01:35:25.480Z,99.90
2022-12-17T01:38:11.929Z,99.90
2022-12-17T01:40:58.323Z,99.90
2022-12-17T01:43:54.979Z,99.90
2022-12-17T01:46:42.618Z,99.90
2022-12-17T01:49:30.806Z,99.90
2022-12-17T01:52:18.741Z,99.90
2022-12-17T01:55:05.710Z,99.90
2022-12-17T01:57:52.974Z,99.90
2022-12-17T02:00:42.076Z,99.90
2022-12-17T02:03:33.198Z,99.90
2022-12-17T02:06:30.174Z,99.90
2022-12-17T02:09:26.061Z,99.90
2022-12-17T02:12:21.561Z,99.90
2022-12-17T02:15:16.398Z,99.90
2022-12-17T02:18:10.861Z,99.90
2022-12-17T02:21:00.989Z,99.90
2022-12-17T02:23:58.526Z,99.90
2022-12-17T02:26:55.053Z,99.90
2022-12-17T02:29:43.641Z,99.90
2022-12-17T02:32:32.367Z,99.90
2022-12-17T02:35:20.653Z,99.90
2022-12-17T02:38:07.551Z,99.90
2022-12-17T02:40:56.854Z,99.90
2022-12-17T02:43:47.246Z,99.90
2022-12-17T02:46:49.874Z,99.90
2022-12-17T02:49:36.684Z,99.90
2022-12-17T02:52:23.696Z,99.90
2022-12-17T02:55:10.446Z,99.90
2022-12-17T02:57:57.152Z,99.90
2022-12-17T03:00:48.391Z,99.90
2022-12-17T03:06:23.323Z,99.90
2022-12-17T03:09:09.995Z,99.90
2022-12-17T03:11:56.551Z,99.90
2022-12-17T03:14:43.245Z,99.90
2022-12-17T03:17:31.058Z,99.90
2022-12-17T03:20:17.457Z,99.90
2022-12-17T03:23:03.797Z,99.90
2022-12-17T03:25:50.503Z,99.90
2022-12-17T03:28:37.042Z,99.90
2022-12-17T03:31:22.755Z,99.90
2022-12-17T03:34:10.735Z,99.90
2022-12-17T03:36:57.251Z,99.90
2022-12-17T03:39:43.615Z,99.90
2022-12-17T03:42:29.835Z,99.90
2022-12-17T03:45:16.365Z,99.90
2022-12-17T03:48:02.810Z,99.90
2022-12-17T03:50:50.582Z,99.90
2022-12-17T03:53:37.390Z,99.90
2022-12-17T03:56:24.629Z,99.90
2022-12-17T03:59:11.222Z,99.90
2022-12-17T04:01:57.771Z,99.90
2022-12-17T04:04:44.633Z,99.90
2022-12-17T04:07:32.556Z,99.90
2022-12-17T04:10:19.011Z,99.90
2022-12-17T04:13:05.805Z,99.90
2022-12-17T04:15:52.180Z,99.90
2022-12-17T04:18:38.872Z,99.90
2022-12-17T04:21:25.620Z,99.90
2022-12-17T04:24:15.885Z,99.90
2022-12-17T04:27:02.501Z,99.90
2022-12-17T04:29:48.800Z,99.90
2022-12-17T04:32:35.740Z,99.90
2022-12-17T04:35:22.358Z,99.90
2022-12-17T04:38:09.312Z,99.90
2022-12-17T04:43:43.791Z,99.90
2022-12-17T04:46:30.539Z,99.90
2022-12-17T04:49:17.744Z,99.90
2022-12-17T04:52:04.060Z,99.90
2022-12-17T04:54:50.374Z,99.90
2022-12-17T04:57:38.319Z,99.90
2022-12-17T05:00:25.619Z,99.90
2022-12-17T05:03:11.939Z,99.90
2022-12-17T05:05:58.712Z,99.90
2022-12-17T05:08:56.581Z,99.90
2022-12-17T05:11:43.029Z,99.90
2022-12-17T05:14:30.851Z,99.90
2022-12-17T05:17:17.236Z,99.90
2022-12-17T05:20:03.479Z,99.90
2022-12-17T05:22:50.373Z,99.90
2022-12-17T05:25:37.030Z,99.90
2022-12-17T05:28:23.441Z,99.90
2022-12-17T05:31:13.339Z,99.90
2022-12-17T05:34:00.634Z,99.90
2022-12-17T05:36:47.492Z,99.90
2022-12-17T05:39:34.203Z,99.90
2022-12-17T05:42:20.496Z,99.90
2022-12-17T05:45:06.817Z,99.90
2022-12-17T05:47:54.629Z,99.90
2022-12-17T05:50:41.420Z,99.90
2022-12-17T05:53:29.267Z,99.90
2022-12-17T05:56:27.107Z,99.90
2022-12-17T05:59:13.852Z,99.90
2022-12-17T06:02:00.610Z,99.90
2022-12-17T06:04:48.747Z,99.90
2022-12-17T06:07:35.136Z,99.90
2022-12-17T06:10:33.428Z,99.90
2022-12-17T06:13:20.216Z,99.90
2022-12-17T06:16:08.282Z,99.90
2022-12-17T06:18:54.957Z,99.90
2022-12-17T06:21:43.226Z,99.90
2022-12-17T06:24:29.987Z,99.90
2022-12-17T06:27:16.277Z,99.90
2022-12-17T06:30:02.668Z,99.90
2022-12-17T06:32:48.947Z,99.90
2022-12-17T06:35:35.726Z,99.90
2022-12-17T06:38:25.321Z,99.90
2022-12-17T06:41:12.160Z,99.90
2022-12-17T06:43:58.634Z,99.90
2022-12-17T06:46:45.072Z,99.90
2022-12-17T06:49:31.635Z,99.90
2022-12-17T06:52:18.108Z,99.90
2022-12-17T06:55:05.947Z,99.90
2022-12-17T06:57:54.697Z,99.90
2022-12-17T07:00:43.956Z,99.90
2022-12-17T07:03:31.252Z,99.90
2022-12-17T07:06:19.458Z,99.90
2022-12-17T07:09:06.534Z,99.90
2022-12-17T07:11:54.392Z,99.90
2022-12-17T07:14:41.010Z,99.90
2022-12-17T07:17:27.475Z,99.90
2022-12-17T07:20:13.998Z,99.90
2022-12-17T07:23:00.556Z,99.90
2022-12-17T07:25:47.299Z,99.90
2022-12-17T07:28:35.048Z,99.90
2022-12-17T07:31:21.526Z,99.90
2022-12-17T07:34:08.115Z,99.90
2022-12-17T07:36:54.477Z,99.90
2022-12-17T07:39:41.305Z,99.90
2022-12-17T07:42:27.904Z,99.90
2022-12-17T07:45:15.614Z,99.90
2022-12-17T07:48:02.024Z,99.90
2022-12-17T07:50:48.433Z,99.90
2022-12-17T07:53:35.040Z,99.90
2022-12-17T07:56:21.545Z,99.90
2022-12-17T07:59:08.029Z,99.90
2022-12-17T08:01:55.916Z,99.90
2022-12-17T08:04:42.536Z,99.90
2022-12-17T08:07:28.847Z,99.90
2022-12-17T08:10:15.089Z,99.90
2022-12-17T08:13:01.430Z,99.90
2022-12-17T08:15:47.901Z,99.90
2022-12-17T08:18:35.649Z,99.90
2022-12-17T08:21:22.158Z,99.90
2022-12-17T08:24:08.829Z,99.90
2022-12-17T08:26:55.195Z,99.90
2022-12-17T08:29:41.954Z,99.90
2022-12-17T08:32:28.967Z,99.90
2022-12-17T08:35:31.549Z,99.90
2022-12-17T08:38:21.314Z,99.90
2022-12-17T08:41:07.947Z,99.90
2022-12-17T08:43:54.474Z,99.90
2022-12-17T08:46:37.361Z,99.90
2022-12-17T08:49:24.212Z,99.90
2022-12-17T08:52:14.781Z,99.90
2022-12-17T08:55:01.472Z,99.90
2022-12-17T08:57:47.707Z,99.90
2022-12-17T09:00:34.697Z,99.90
2022-12-17T09:03:22.049Z,99.90
2022-12-17T09:06:11.238Z,99.90
2022-12-17T09:08:59.323Z,99.90
2022-12-17T09:11:51.712Z,99.90
2022-12-17T09:14:38.483Z,99.90
2022-12-17T09:17:36.692Z,99.90
2022-12-17T09:20:28.916Z,99.90
2022-12-17T09:26:11.667Z,99.90
2022-12-17T09:28:58.384Z,99.90
2022-12-17T09:31:44.855Z,99.90
2022-12-17T09:34:31.744Z,99.90
2022-12-17T09:37:18.127Z,99.90
2022-12-17T09:40:04.756Z,99.90
2022-12-17T09:43:01.047Z,99.90
2022-12-17T09:45:51.871Z,99.90
2022-12-17T09:48:44.227Z,99.90
2022-12-17T09:51:40.039Z,99.90
2022-12-17T09:54:34.405Z,99.90
2022-12-17T10:00:09.137Z,99.90
2022-12-17T10:02:59.235Z,99.90
2022-12-17T10:05:50.113Z,99.90
2022-12-17T10:08:39.413Z,99.90
2022-12-17T10:11:48.380Z,99.90
2022-12-17T10:14:38.299Z,99.90
2022-12-17T10:17:34.171Z,99.90
2022-12-17T10:20:20.880Z,99.90
2022-12-17T10:23:09.680Z,99.90
2022-12-17T10:25:56.090Z,99.90
2022-12-17T10:28:43.680Z,99.90
2022-12-17T10:31:35.652Z,99.90
2022-12-17T10:34:26.483Z,99.90
2022-12-17T10:37:13.431Z,99.90
2022-12-17T10:40:01.266Z,99.90
2022-12-17T10:42:49.401Z,99.90
2022-12-17T10:45:41.910Z,99.90
2022-12-17T10:48:40.534Z,99.90
2022-12-17T10:51:39.604Z,99.90
2022-12-17T10:54:37.013Z,99.90
2022-12-17T10:57:26.182Z,99.90
2022-12-17T11:00:13.400Z,99.90
2022-12-17T11:03:07.420Z,99.90
2022-12-17T11:05:59.671Z,99.90
2022-12-17T11:08:50.354Z,99.90
2022-12-17T11:11:36.822Z,99.90
2022-12-17T11:14:25.341Z,99.90
2022-12-17T11:17:13.798Z,99.90
2022-12-17T11:20:06.620Z,99.90
2022-12-17T11:22:58.353Z,99.90
2022-12-17T11:26:01.090Z,99.90
2022-12-17T11:28:51.913Z,99.90
2022-12-17T11:31:58.653Z,99.90
2022-12-17T11:34:54.355Z,99.90
2022-12-17T11:37:44.432Z,99.90
2022-12-17T11:40:40.905Z,99.90
2022-12-17T11:43:40.636Z,99.90
2022-12-17T11:46:38.115Z,99.90
2022-12-17T11:49:36.564Z,99.90
2022-12-17T11:52:31.014Z,99.90
2022-12-17T11:55:24.990Z,99.90
2022-12-17T11:58:19.345Z,99.90
2022-12-17T12:01:17.717Z,99.90
2022-12-17T12:04:14.749Z,99.90
2022-12-17T12:07:20.070Z,99.90
2022-12-17T12:10:12.001Z,99.90
2022-12-17T12:13:10.180Z,99.90
2022-12-17T12:16:06.868Z,99.90
2022-12-17T12:19:03.173Z,99.90
2022-12-17T12:21:58.272Z,99.90
2022-12-17T12:25:06.635Z,99.90
2022-12-17T12:28:00.745Z,99.90
2022-12-17T12:30:53.436Z,99.60
2022-12-17T12:33:50.460Z,99.90
2022-12-17T12:36:40.580Z,99.40
2022-12-17T12:39:31.950Z,98.70
2022-12-17T12:42:23.699Z,98.50
2022-12-17T12:45:18.710Z,98.70
2022-12-17T12:48:12.557Z,99.80
2022-12-17T12:51:07.627Z,99.90
2022-12-17T12:53:55.883Z,99.90
2022-12-17T12:56:52.455Z,98.50
2022-12-17T12:59:47.571Z,98.00
2022-12-17T13:02:45.481Z,97.60
2022-12-17T13:05:35.910Z,97.00
2022-12-17T13:08:19.366Z,96.70
2022-12-17T13:10:50.925Z,96.20
2022-12-17T13:13:31.939Z,95.60
2022-12-17T13:16:05.572Z,94.90
2022-12-17T13:18:37.519Z,97.30
2022-12-17T13:21:25.811Z,98.40
2022-12-17T13:23:55.244Z,98.20
2022-12-17T13:26:43.928Z,98.50
2022-12-17T13:29:19.882Z,96.10
2022-12-17T13:32:17.607Z,94.70
2022-12-17T13:35:00.086Z,95.90
2022-12-17T13:37:44.693Z,98.50
2022-12-17T13:40:27.317Z,99.90
2022-12-17T13:42:58.295Z,99.90
2022-12-17T13:45:29.316Z,99.90
2022-12-17T13:48:00.732Z,99.90
2022-12-17T13:50:34.697Z,99.90
2022-12-17T13:53:12.197Z,99.90
2022-12-17T13:55:41.934Z,99.90
2022-12-17T13:58:24.573Z,99.90
2022-12-17T14:01:05.217Z,99.90
2022-12-17T14:04:04.646Z,99.90
2022-12-17T14:06:25.894Z,99.90
2022-12-17T14:08:58.435Z,99.90
2022-12-17T14:11:45.791Z,99.90
2022-12-17T14:14:26.891Z,99.90
2022-12-17T14:16:57.264Z,99.90
2022-12-17T14:19:29.551Z,99.90
2022-12-17T14:21:59.321Z,99.90
2022-12-17T14:24:30.494Z,99.90
2022-12-17T14:27:01.552Z,99.90
2022-12-17T14:29:33.492Z,99.90
2022-12-17T14:32:05.410Z,99.90
2022-12-17T14:34:43.702Z,99.90
2022-12-17T14:37:18.953Z,99.90
2022-12-17T14:39:49.587Z,99.90
2022-12-17T14:42:29.892Z,99.90
2022-12-17T15:02:57.430Z,99.90
2022-12-17T15:15:27.341Z,99.90
2022-12-17T15:17:56.703Z,99.90
2022-12-17T15:20:26.252Z,99.90
2022-12-17T15:27:55.751Z,99.90
2022-12-17T15:30:26.637Z,99.90
2022-12-17T15:37:57.003Z,99.90
2022-12-17T15:40:26.460Z,99.90
2022-12-17T15:50:44.746Z,99.90
2022-12-17T15:53:14.209Z,99.90
2022-12-17T16:05:45.008Z,99.90
2022-12-17T16:35:51.706Z,99.90
2022-12-17T16:38:21.969Z,99.90
2022-12-17T16:40:51.358Z,99.90
2022-12-17T16:48:22.426Z,99.90
2022-12-17T16:50:52.568Z,99.90
2022-12-17T16:53:22.077Z,99.90
2022-12-17T17:00:56.446Z,99.90
2022-12-17T17:18:42.181Z,99.90
2022-12-17T17:31:15.778Z,99.90
2022-12-17T17:33:48.943Z,99.90
2022-12-17T17:36:20.711Z,99.90
2022-12-17T17:38:51.769Z,99.90
2022-12-17T17:41:22.810Z,99.90
2022-12-17T17:43:55.440Z,99.90
2022-12-17T17:46:25.004Z,99.90
2022-12-17T17:48:58.748Z,99.90
2022-12-17T17:52:07.145Z,99.90
2022-12-17T17:54:19.332Z,99.90
2022-12-17T17:59:19.674Z,99.90
2022-12-17T18:01:51.187Z,99.90
2022-12-17T18:04:24.471Z,99.90
2022-12-17T18:07:24.644Z,99.90
2022-12-17T18:09:43.683Z,99.90
2022-12-17T18:12:26.686Z,99.90
2022-12-17T18:17:46.174Z,99.90
2022-12-17T18:20:17.096Z,99.90
2022-12-17T18:37:49.516Z,99.90
2022-12-17T18:40:18.936Z,99.90
2022-12-17T18:43:05.430Z,99.90
2022-12-17T18:45:38.472Z,99.90
2022-12-17T18:48:08.239Z,99.90
2022-12-17T18:50:40.375Z,99.90
2022-12-17T18:53:10.022Z,99.90
2022-12-17T18:55:41.621Z,99.90
2022-12-17T18:58:11.481Z,99.90
2022-12-17T19:00:40.887Z,99.90
2022-12-17T19:03:10.426Z,99.90
2022-12-17T19:05:46.562Z,99.90
2022-12-17T19:08:17.655Z,99.90
2022-12-17T19:10:47.029Z,99.90
2022-12-17T19:13:16.424Z,99.90
2022-12-17T19:15:45.670Z,99.90
2022-12-17T19:18:15.045Z,99.90
2022-12-17T19:20:45.795Z,99.90
2022-12-17T19:23:15.316Z,99.90
2022-12-17T19:25:44.565Z,99.90
2022-12-17T19:28:13.947Z,99.90
2022-12-17T19:30:43.206Z,99.90
2022-12-17T19:33:12.524Z,99.90
2022-12-17T19:38:12.767Z,99.90
2022-12-17T19:40:42.106Z,99.90
2022-12-17T19:43:11.315Z,99.90
2022-12-17T19:45:40.833Z,99.90
2022-12-17T19:48:10.138Z,99.90
2022-12-17T19:50:39.495Z,99.90
2022-12-17T19:53:08.905Z,99.90
2022-12-17T19:55:39.925Z,99.90
2022-12-17T19:58:09.336Z,99.90
2022-12-17T20:00:38.586Z,99.90
2022-12-17T20:03:08.049Z,99.90
2022-12-17T20:05:37.395Z,99.90
2022-12-17T20:08:07.364Z,99.90
